Time;durP1;ratioP1;P1;durP2;ratioP2;P2;SDS_P1;SDS_P2;PMS_P1;PMS_P2;Temp;Humidity;BMP_temperature;BMP_pressure;BME280_temperature;BME280_humidity;BME280_pressure;Samples;Min_cycle;Max_cycle;Signal;HPM_P1;HPM_P2
2022/09/17 00:02:12;;;;;;;13.30;1.97;;;;;;;8.75;100.00;101203.09;5115464;28;20028;-90
2022/09/17 00:04:59;;;;;;;;;;;;;;;;;;;;;
2022/09/17 00:07:48;;;;;;;;;;;;;;;;;;;;;
2022/09/17 00:10:22;;;;;;;10.48;2.10;;;;;;;8.78;100.00;101218.94;5117544;28;20032;-90
2022/09/17 00:13:00;;;;;;;15.43;1.75;;;;;;;8.85;100.00;101218.16;5097737;28;20122;-91
2022/09/17 00:15:51;;;;;;;11.70;1.80;;;;;;;8.86;100.00;101222.53;5064758;28;20384;-91
2022/09/17 00:18:28;;;;;;;12.65;1.80;;;;;;;8.89;100.00;101225.69;5087642;28;20074;-91
2022/09/17 00:21:17;;;;;;;14.25;1.63;;;;;;;8.90;100.00;101223.81;5097344;28;20058;-91
2022/09/17 00:23:56;;;;;;;11.32;2.25;;;;;;;8.95;100.00;101232.19;5096778;28;20032;-91
2022/09/17 00:26:39;;;;;;;11.32;2.03;;;;;;;8.89;100.00;101214.88;5073665;28;20066;-91
2022/09/17 00:29:11;;;;;;;12.07;2.30;;;;;;;8.98;100.00;101225.56;5082278;28;20027;-90
2022/09/17 00:32:05;;;;;;;13.55;1.90;;;;;;;8.99;100.00;101229.91;5063954;28;20118;-91
2022/09/17 00:34:54;;;;;;;11.07;1.55;;;;;;;8.98;100.00;101229.09;5082132;28;20134;-91
2022/09/17 00:37:51;;;;;;;11.90;1.70;;;;;;;8.97;100.00;101223.88;5096732;28;20036;-92
2022/09/17 00:40:38;;;;;;;;;;;;;;;;;;;;;
2022/09/17 00:43:29;;;;;;;11.87;2.40;;;;;;;9.02;100.00;101224.97;5101605;27;20027;-91
2022/09/17 00:46:18;;;;;;;13.10;1.50;;;;;;;9.03;100.00;101229.34;5101563;28;20035;-90
2022/09/17 00:52:28;;;;;;;;;;;;;;;;;;;;;
2022/09/17 00:55:11;;;;;;;12.13;2.03;;;;;;;9.04;100.00;101222.06;5135687;28;20039;-91
2022/09/17 00:57:44;;;;;;;20.52;1.77;;;;;;;9.06;100.00;101237.06;5134879;28;20059;-90
2022/09/17 01:00:17;;;;;;;10.27;1.30;;;;;;;9.02;100.00;101232.25;5116681;28;20527;-90
2022/09/17 01:03:11;;;;;;;9.98;1.65;;;;;;;9.00;100.00;101237.03;5116224;28;20027;-90
2022/09/17 01:05:50;;;;;;;9.23;1.42;;;;;;;9.07;100.00;101251.44;5134048;28;20035;-90
2022/09/17 01:08:50;;;;;;;;;;;;;;;;;;;;;
2022/09/17 01:11:41;;;;;;;11.80;1.47;;;;;;;9.02;100.00;101237.66;5135584;28;20033;-89
2022/09/17 01:14:29;;;;;;;11.90;1.30;;;;;;;9.04;100.00;101239.13;5117289;28;20089;-90
2022/09/17 01:17:13;;;;;;;12.48;1.38;;;;;;;9.04;100.00;101239.13;5117022;28;20080;-89
2022/09/17 01:20:24;;;;;;;7.15;1.42;;;;;;;9.08;100.00;101245.84;5116358;28;20039;-90
2022/09/17 01:23:37;;;;;;;10.85;1.83;;;;;;;9.03;100.00;101229.34;5116140;28;20039;-90
2022/09/17 01:26:41;;;;;;;14.30;1.90;;;;;;;9.10;100.00;101249.19;5116348;28;20038;-89
2022/09/17 01:29:30;;;;;;;13.50;1.50;;;;;;;9.11;100.00;101253.56;5116865;28;20088;-90
2022/09/17 01:32:11;;;;;;;14.20;1.73;;;;;;;9.10;100.00;101254.59;5116505;27;20027;-89
2022/09/17 01:35:16;;;;;;;9.18;1.25;;;;;;;9.11;100.00;101258.16;5138504;27;20042;-90
2022/09/17 01:38:04;;;;;;;;;;;;;;;;;;;;;
2022/09/17 01:41:06;;;;;;;9.30;1.40;;;;;;;9.17;100.00;101265.50;5138853;27;20380;-91
2022/09/17 01:43:40;;;;;;;13.07;1.13;;;;;;;9.21;100.00;101264.06;5119653;27;20107;-93
2022/09/17 01:46:23;;;;;;;13.98;1.40;;;;;;;9.21;100.00;101260.50;5120472;27;20035;-91
2022/09/17 01:49:03;;;;;;;7.78;1.05;;;;;;;9.20;100.00;101264.28;5120813;27;20047;-92
2022/09/17 01:51:44;;;;;;;9.57;1.23;;;;;;;9.19;100.00;101259.88;5141214;27;20053;-92
2022/09/17 01:54:22;;;;;;;8.23;1.17;;;;;;;9.26;100.00;101274.31;5140474;27;20026;-92
2022/09/17 01:56:57;;;;;;;11.02;1.30;;;;;;;9.24;100.00;101279.06;5140870;27;20118;-92
2022/09/17 01:59:41;;;;;;;13.30;1.42;;;;;;;9.17;100.00;101270.03;5140286;27;20038;-92
2022/09/17 02:02:16;;;;;;;8.43;1.50;;;;;;;9.14;100.00;101268.59;5140910;27;20026;-92
2022/09/17 02:05:00;;;;;;;;;;;;;;;;;;;;;
2022/09/17 02:07:29;;;;;;;10.60;1.00;;;;;;;9.06;100.00;101266.84;5159024;27;20034;-92
2022/09/17 02:10:07;;;;;;;12.95;1.40;;;;;;;9.03;100.00;101267.22;5140316;27;20023;-91
2022/09/17 02:13:03;;;;;;;11.45;1.45;;;;;;;8.98;100.00;101249.94;5141188;27;20446;-92
2022/09/17 02:15:38;;;;;;;12.60;1.70;;;;;;;9.00;100.00;101259.50;5140964;27;20037;-92
2022/09/17 02:18:43;;;;;;;13.93;1.52;;;;;;;9.02;100.00;101262.88;5139374;27;20142;-92
2022/09/17 02:21:41;;;;;;;12.43;1.33;;;;;;;9.02;100.00;101262.00;5138944;27;20145;-92
2022/09/17 02:24:54;;;;;;;11.27;1.63;;;;;;;9.05;100.00;101265.19;5139413;27;20033;-93
2022/09/17 02:27:36;;;;;;;7.63;1.13;;;;;;;9.04;100.00;101265.38;5120547;27;20534;-92
2022/09/17 02:30:05;;;;;;;16.38;2.03;;;;;;;9.04;100.00;101270.78;5139993;27;20039;-92
2022/09/17 02:32:52;;;;;;;10.45;1.73;;;;;;;9.01;100.00;101268.47;5140218;27;20033;-92
2022/09/17 02:35:18;;;;;;;8.80;1.20;;;;;;;9.00;100.00;101272.22;5124251;27;20031;-93
2022/09/17 02:37:56;;;;;;;9.95;1.20;;;;;;;8.97;100.00;101278.00;5140167;27;20477;-92
2022/09/17 02:40:49;;;;;;;14.57;1.50;;;;;;;8.91;100.00;101280.44;5109104;27;20030;-92
2022/09/17 02:43:54;;;;;;;16.83;1.95;;;;;;;8.91;100.00;101276.91;5157427;27;20417;-93
2022/09/17 02:46:22;;;;;;;11.70;1.10;;;;;;;8.91;100.00;101280.44;5099369;27;20505;-92
2022/09/17 02:49:29;;;;;;;10.53;1.43;;;;;;;8.90;100.00;101286.06;5139551;27;20031;-92
2022/09/17 02:52:28;;;;;;;;;;;;;;;;;;;;;
2022/09/17 02:55:23;;;;;;;8.85;1.40;;;;;;;8.83;100.00;101286.00;5158497;27;20026;-92
2022/09/17 02:57:54;;;;;;;9.57;1.63;;;;;;;8.81;100.00;101288.03;5139295;27;20107;-93
2022/09/17 03:00:22;;;;;;;14.25;1.48;;;;;;;8.73;100.00;101294.44;5139478;27;20130;-92
2022/09/17 03:03:03;;;;;;;11.87;1.13;;;;;;;8.66;100.00;101287.28;5139922;27;20144;-92
2022/09/17 03:05:31;;;;;;;12.43;1.65;;;;;;;8.62;100.00;101283.28;5139150;27;20023;-92
2022/09/17 03:07:59;;;;;;;11.98;1.40;;;;;;;8.57;100.00;101286.56;5139340;27;20110;-92
2022/09/17 03:10:28;;;;;;;11.93;1.35;;;;;;;8.54;100.00;101281.53;5138864;27;20082;-91
2022/09/17 03:12:56;;;;;;;14.75;1.40;;;;;;;8.53;100.00;101290.66;5138753;27;20101;-91
2022/09/17 03:15:24;;;;;;;11.73;1.63;;;;;;;8.52;100.00;101284.44;5138673;27;20023;-91
2022/09/17 03:17:50;;;;;;;14.77;1.48;;;;;;;8.49;100.00;101279.41;5139080;27;20056;-93
2022/09/17 03:20:24;;;;;;;13.20;1.53;;;;;;;8.53;100.00;101283.41;5139197;27;20422;-92
2022/09/17 03:22:55;;;;;;;13.57;1.53;;;;;;;8.60;100.00;101287.00;5139360;27;20336;-92
2022/09/17 03:25:21;;;;;;;14.60;1.77;;;;;;;8.61;100.00;101271.63;5138759;27;20029;-92
2022/09/17 03:27:47;;;;;;;8.40;1.00;;;;;;;8.65;100.00;101281.03;5139015;27;20373;-92
2022/09/17 03:30:14;;;;;;;15.53;1.90;;;;;;;8.66;100.00;101285.41;5138663;27;20381;-92
2022/09/17 03:32:50;;;;;;;9.73;1.08;;;;;;;8.69;100.00;101276.91;5138532;27;20109;-92
2022/09/17 03:35:21;;;;;;;8.77;1.55;;;;;;;8.71;100.00;101268.59;5139803;27;20027;-92
2022/09/17 03:37:47;;;;;;;12.03;1.40;;;;;;;8.69;100.00;101273.38;5139607;27;20030;-92
2022/09/17 03:40:12;;;;;;;10.45;1.10;;;;;;;8.70;100.00;101269.63;5138754;27;20454;-92
2022/09/17 03:42:38;;;;;;;14.10;1.53;;;;;;;8.69;100.00;101278.78;5138314;27;20185;-92
2022/09/17 03:45:07;;;;;;;9.55;0.93;;;;;;;8.62;100.00;101273.28;5138028;27;20054;-93
2022/09/17 03:47:36;;;;;;;8.40;1.15;;;;;;;8.57;100.00;101273.88;5138776;27;20015;-92
2022/09/17 03:50:08;;;;;;;8.93;1.00;;;;;;;8.53;100.00;101277.16;5120992;27;20031;-92
2022/09/17 03:52:41;;;;;;;10.97;1.23;;;;;;;8.47;100.00;101278.75;5138748;27;20026;-93
2022/09/17 03:55:11;;;;;;;10.90;1.10;;;;;;;8.45;100.00;101286.22;5121434;27;20031;-92
2022/09/17 03:57:39;;;;;;;11.52;0.93;;;;;;;8.39;100.00;101282.38;5120386;27;20119;-92
2022/09/17 04:00:06;;;;;;;17.70;1.55;;;;;;;8.36;100.00;101285.47;5121097;27;20026;-92
2022/09/17 04:02:37;;;;;;;12.85;1.02;;;;;;;8.33;100.00;101287.72;5138123;27;20079;-92
2022/09/17 04:05:09;;;;;;;8.23;0.90;;;;;;;8.29;100.00;101289.94;5138991;27;20027;-92
2022/09/17 04:07:46;;;;;;;11.48;1.08;;;;;;;8.25;100.00;101281.41;5138483;27;20105;-92
2022/09/17 04:10:16;;;;;;;10.13;1.23;;;;;;;8.23;100.00;101286.13;5121417;27;20065;-92
2022/09/17 04:12:47;;;;;;;8.18;1.15;;;;;;;8.24;100.00;101284.28;5122077;27;20034;-92
2022/09/17 04:15:21;;;;;;;11.27;1.50;;;;;;;8.21;100.00;101288.19;5122183;27;20455;-92
2022/09/17 04:17:47;;;;;;;11.57;1.00;;;;;;;8.17;100.00;101292.31;5138421;27;20105;-92
2022/09/17 04:20:26;;;;;;;;;;;;;;;;;;;;;
2022/09/17 04:23:01;;;;;;;12.77;1.25;;;;;;;8.12;100.00;101302.00;5157387;27;20422;-92
2022/09/17 04:25:44;;;;;;;10.57;0.90;;;;;;;8.08;100.00;101304.25;5121267;27;20058;-92
2022/09/17 04:28:17;;;;;;;4.83;1.03;;;;;;;8.07;100.00;101297.16;5138016;27;20034;-91
2022/09/17 04:30:49;;;;;;;9.82;1.50;;;;;;;8.07;100.00;101306.13;5137781;27;20054;-92
2022/09/17 04:33:17;;;;;;;12.52;1.40;;;;;;;8.02;100.00;101303.13;5138385;27;20022;-91
2022/09/17 04:35:48;;;;;;;12.73;1.45;;;;;;;8.03;100.00;101301.25;5137309;27;20034;-91
2022/09/17 04:38:24;;;;;;;12.88;1.58;;;;;;;8.04;100.00;101300.25;5137430;27;20481;-91
2022/09/17 04:40:59;;;;;;;15.07;1.30;;;;;;;8.09;100.00;101308.63;5137398;27;20048;-91
2022/09/17 04:43:39;;;;;;;12.27;1.15;;;;;;;8.16;100.00;101314.94;5137305;27;20046;-91
2022/09/17 04:46:15;;;;;;;13.00;1.40;;;;;;;8.22;100.00;101324.16;5137106;27;20039;-91
2022/09/17 04:48:50;;;;;;;10.68;1.58;;;;;;;8.28;100.00;101325.28;5137289;27;20125;-92
2022/09/17 04:51:17;;;;;;;10.50;1.83;;;;;;;8.31;100.00;101311.38;5121045;27;20031;-92
2022/09/17 04:53:54;;;;;;;14.23;2.03;;;;;;;8.36;100.00;101298.16;5138178;27;20023;-92
2022/09/17 04:56:33;;;;;;;10.63;1.30;;;;;;;8.38;100.00;101305.03;5138865;27;20066;-91
2022/09/17 04:58:59;;;;;;;10.27;1.23;;;;;;;8.41;100.00;101301.97;5137305;27;20038;-92
2022/09/17 05:01:36;;;;;;;11.90;1.37;;;;;;;8.38;100.00;101290.69;5137960;27;20063;-91
2022/09/17 05:04:03;;;;;;;15.18;1.80;;;;;;;8.39;100.00;101300.47;5137298;27;20057;-91
2022/09/17 05:06:44;;;;;;;16.30;2.28;;;;;;;8.36;100.00;101300.84;5136994;27;20208;-91
2022/09/17 05:09:13;;;;;;;13.00;0.93;;;;;;;8.32;100.00;101304.97;5141344;27;20027;-91
2022/09/17 05:11:43;;;;;;;12.50;1.25;;;;;;;8.31;100.00;101312.25;5141995;27;20041;-91
2022/09/17 05:14:30;;;;;;;11.43;1.33;;;;;;;8.27;100.00;101321.75;5142403;27;20153;-91
2022/09/17 05:16:59;;;;;;;11.50;1.67;;;;;;;8.24;100.00;101322.13;5125622;27;20117;-91
2022/09/17 05:19:25;;;;;;;9.65;1.13;;;;;;;8.20;100.00;101318.13;5140755;27;20054;-91
2022/09/17 05:21:55;;;;;;;20.03;1.30;;;;;;;8.15;100.00;101316.00;5141241;27;20466;-91
2022/09/17 05:24:26;;;;;;;9.60;1.00;;;;;;;8.12;100.00;101327.19;5124556;27;20121;-92
2022/09/17 05:27:07;;;;;;;;;;;;;;;;;;;;;
2022/09/17 05:29:46;;;;;;;13.93;1.20;;;;;;;8.05;100.00;101328.94;5143034;27;20031;-92
2022/09/17 05:32:32;;;;;;;11.73;1.60;;;;;;;8.00;100.00;101340.31;5125029;27;20035;-91
2022/09/17 05:35:01;;;;;;;18.08;1.50;;;;;;;7.98;100.00;101336.13;5124207;27;20061;-89
2022/09/17 05:37:35;;;;;;;14.43;1.65;;;;;;;7.97;100.00;101339.84;5140417;27;20522;-89
2022/09/17 05:40:02;;;;;;;12.60;1.65;;;;;;;7.96;100.00;101336.31;5141195;27;20047;-90
2022/09/17 05:42:31;;;;;;;12.60;1.17;;;;;;;7.96;100.00;101338.16;5140598;27;20104;-90
2022/09/17 05:44:56;;;;;;;14.70;1.50;;;;;;;8.00;100.00;101329.50;5139928;27;20424;-87
2022/09/17 05:47:22;;;;;;;9.65;1.35;;;;;;;8.03;100.00;101329.13;5140159;27;20034;-89
2022/09/17 05:49:50;;;;;;;8.17;1.13;;;;;;;8.07;100.00;101343.09;5139840;27;20030;-88
2022/09/17 05:52:19;;;;;;;16.92;1.70;;;;;;;8.08;100.00;101337.50;5140109;27;20109;-88
2022/09/17 05:54:45;;;;;;;13.70;1.88;;;;;;;8.12;100.00;101346.09;5140195;27;20027;-88
2022/09/17 05:57:11;;;;;;;7.63;1.85;;;;;;;8.14;100.00;101348.63;5140291;27;20054;-88
2022/09/17 05:59:38;;;;;;;10.03;1.40;;;;;;;8.20;100.00;101354.09;5140237;27;20496;-87
2022/09/17 06:02:04;;;;;;;8.30;2.05;;;;;;;8.28;100.00;101361.25;5139658;27;20038;-87
2022/09/17 06:04:29;;;;;;;12.23;1.70;;;;;;;8.34;100.00;101365.94;5122687;27;20027;-88
2022/09/17 06:06:57;;;;;;;13.27;1.63;;;;;;;8.38;100.00;101371.78;5140661;27;20027;-88
2022/09/17 06:09:25;;;;;;;8.50;1.15;;;;;;;8.40;100.00;101381.41;5158464;27;20030;-87
2022/09/17 06:11:52;;;;;;;16.60;1.42;;;;;;;8.41;100.00;101376.81;5122835;27;20095;-88
2022/09/17 06:14:20;;;;;;;8.77;1.20;;;;;;;8.43;100.00;101377.50;5122638;27;20412;-88
2022/09/17 06:16:46;;;;;;;10.30;1.33;;;;;;;8.43;100.00;101372.09;5139607;27;20023;-88
2022/09/17 06:19:14;;;;;;;12.70;1.27;;;;;;;8.40;100.00;101376.00;5138114;27;20018;-88
2022/09/17 06:21:42;;;;;;;13.32;1.13;;;;;;;8.38;100.00;101374.50;5139552;27;20038;-88
2022/09/17 06:24:09;;;;;;;12.02;1.25;;;;;;;8.37;100.00;101378.22;5139551;27;20063;-88
2022/09/17 06:26:34;;;;;;;12.83;1.50;;;;;;;8.34;100.00;101381.31;5139758;27;20026;-88
2022/09/17 06:29:04;;;;;;;13.35;1.50;;;;;;;8.30;100.00;101369.19;5139452;27;20059;-88
2022/09/17 06:31:33;;;;;;;15.70;0.90;;;;;;;8.31;100.00;101370.88;5140121;27;20027;-88
2022/09/17 06:34:00;;;;;;;8.98;1.08;;;;;;;8.26;100.00;101377.66;5139249;27;20065;-88
2022/09/17 06:36:28;;;;;;;6.03;1.50;;;;;;;8.26;100.00;101374.97;5158150;27;20086;-88
2022/09/17 06:38:56;;;;;;;11.95;1.38;;;;;;;8.27;100.00;101375.81;5139490;27;20031;-88
2022/09/17 06:41:22;;;;;;;6.75;1.10;;;;;;;8.24;100.00;101368.09;5138816;27;20031;-88
2022/09/17 06:43:54;;;;;;;10.07;1.43;;;;;;;8.28;100.00;101373.94;5135338;27;20051;-88
2022/09/17 06:46:21;;;;;;;13.30;1.33;;;;;;;8.30;100.00;101371.88;5135905;27;20126;-88
2022/09/17 06:48:47;;;;;;;10.80;1.10;;;;;;;8.33;100.00;101374.25;5135275;27;20033;-87
2022/09/17 06:51:13;;;;;;;17.17;2.08;;;;;;;8.32;100.00;101372.56;5135248;27;20023;-88
2022/09/17 06:53:52;;;;;;;8.52;1.20;;;;;;;8.34;100.00;101371.34;5117994;27;20482;-88
2022/09/17 06:56:17;;;;;;;8.87;0.80;;;;;;;8.38;100.00;101364.50;5135693;27;20027;-88
2022/09/17 06:58:46;;;;;;;9.15;1.20;;;;;;;8.42;100.00;101365.00;5135244;27;20363;-88
2022/09/17 07:01:14;;;;;;;11.10;0.93;;;;;;;8.47;100.00;101370.69;5118054;27;20038;-88
2022/09/17 07:03:55;;;;;;;;;;;;;;;;;;;;;
2022/09/17 07:06:21;;;;;;;14.50;1.48;;;;;;;8.64;100.00;101365.09;5135980;27;20476;-88
2022/09/17 07:08:49;;;;;;;4.13;0.77;;;;;;;8.77;100.00;101371.47;5135056;27;20113;-88
2022/09/17 07:11:15;;;;;;;10.02;0.90;;;;;;;8.91;100.00;101366.22;5134722;27;20084;-87
2022/09/17 07:13:46;;;;;;;9.50;1.23;;;;;;;9.03;100.00;101375.50;5135300;27;20027;-87
2022/09/17 07:16:17;;;;;;;7.30;1.00;;;;;;;9.13;100.00;101377.91;5136261;27;20063;-88
2022/09/17 07:18:42;;;;;;;11.20;1.10;;;;;;;9.20;100.00;101372.56;5135708;27;20083;-88
2022/09/17 07:21:11;;;;;;;8.43;1.30;;;;;;;9.29;100.00;101368.69;5134545;27;20031;-88
2022/09/17 07:23:39;;;;;;;6.03;1.08;;;;;;;9.41;100.00;101372.53;5134657;27;20027;-88
2022/09/17 07:26:13;;;;;;;6.60;1.00;;;;;;;9.54;100.00;101388.06;5134498;27;20113;-87
2022/09/17 07:28:40;;;;;;;14.52;1.63;;;;;;;9.60;100.00;101387.28;5117193;27;20035;-88
2022/09/17 07:31:08;;;;;;;10.30;1.88;;;;;;;9.69;100.00;101392.56;5134531;27;20370;-87
2022/09/17 07:33:37;;;;;;;11.88;1.50;;;;;;;9.80;100.00;101376.63;5135786;27;20027;-87
2022/09/17 07:36:05;;;;;;;13.75;1.30;;;;;;;9.91;100.00;101377.94;5117124;27;20042;-87
2022/09/17 07:38:34;;;;;;;7.77;1.37;;;;;;;10.02;100.00;101373.81;5135390;27;20408;-87
2022/09/17 07:41:17;;;;;;;13.48;1.67;;;;;;;10.17;100.00;101382.69;5134322;27;20130;-87
2022/09/17 07:43:45;;;;;;;6.55;1.48;;;;;;;10.32;100.00;101388.00;5133923;27;20043;-88
2022/09/17 07:46:16;;;;;;;7.82;0.80;;;;;;;10.37;100.00;101375.72;5117786;27;20040;-87
2022/09/17 07:48:42;;;;;;;7.85;0.70;;;;;;;10.35;100.00;101375.94;5134646;27;20023;-87
2022/09/17 07:51:13;;;;;;;6.87;0.67;;;;;;;10.39;100.00;101381.78;5134330;27;20080;-87
2022/09/17 07:53:38;;;;;;;5.88;0.60;;;;;;;10.46;100.00;101379.94;5134487;27;20027;-88
2022/09/17 07:56:06;;;;;;;5.27;1.00;;;;;;;10.54;100.00;101371.66;5134023;27;20097;-88
2022/09/17 07:58:35;;;;;;;8.35;1.20;;;;;;;10.67;100.00;101378.97;5134050;27;20033;-88
2022/09/17 08:01:12;;;;;;;5.40;0.82;;;;;;;10.67;100.00;101376.25;5134205;27;20020;-88
2022/09/17 08:03:38;;;;;;;4.80;0.63;;;;;;;10.74;100.00;101382.56;5135020;27;20050;-87
2022/09/17 08:06:14;;;;;;;7.95;0.90;;;;;;;10.82;100.00;101376.97;5133510;27;20067;-88
2022/09/17 08:08:40;;;;;;;6.95;1.17;;;;;;;11.00;99.70;101380.97;5133794;27;20027;-88
2022/09/17 08:11:16;;;;;;;8.30;0.93;;;;;;;11.24;97.99;101376.84;5133930;27;20064;-88
2022/09/17 08:13:44;;;;;;;7.63;1.67;;;;;;;11.37;97.01;101382.28;5117195;27;20063;-88
2022/09/17 08:16:20;;;;;;;7.13;1.23;;;;;;;11.43;97.28;101372.47;5133457;27;20070;-87
2022/09/17 08:18:49;;;;;;;7.65;0.88;;;;;;;11.35;94.10;101378.09;5133499;27;20023;-88
2022/09/17 08:21:17;;;;;;;7.78;1.48;;;;;;;11.28;95.59;101378.09;5134810;27;20382;-88
2022/09/17 08:23:43;;;;;;;5.28;0.90;;;;;;;11.25;94.40;101381.25;5133608;27;20031;-88
2022/09/17 08:26:13;;;;;;;7.25;1.27;;;;;;;11.22;96.10;101377.03;5133374;27;20064;-88
2022/09/17 08:28:53;;;;;;;3.53;0.70;;;;;;;11.19;92.62;101380.19;5135810;27;20023;-87
2022/09/17 08:31:21;;;;;;;4.35;0.80;;;;;;;11.19;93.33;101380.19;5133557;27;20038;-88
2022/09/17 08:33:53;;;;;;;3.53;0.70;;;;;;;11.25;93.39;101383.94;5133142;27;20048;-88
2022/09/17 08:36:23;;;;;;;6.70;0.70;;;;;;;11.30;93.49;101373.28;5117723;27;20062;-88
2022/09/17 08:38:52;;;;;;;10.38;1.20;;;;;;;11.36;92.62;101375.16;5134390;27;20027;-87
2022/09/17 08:41:39;;;;;;;3.57;1.00;;;;;;;11.39;91.52;101385.63;5132899;27;20020;-88
2022/09/17 08:44:24;;;;;;;6.20;0.90;;;;;;;11.40;92.01;101381.03;5133019;27;20054;-88
2022/09/17 08:47:05;;;;;;;6.85;0.85;;;;;;;11.46;91.96;101392.97;5134305;27;20039;-88
2022/09/17 08:49:58;;;;;;;6.32;1.35;;;;;;;11.52;91.80;101394.84;5133147;28;20531;-88
2022/09/17 08:53:00;;;;;;;6.65;1.17;;;;;;;11.63;93.06;101393.38;5134393;28;20028;-88
2022/09/17 08:55:38;;;;;;;7.40;0.80;;;;;;;11.72;88.93;101394.81;5133222;28;20031;-88
2022/09/17 08:58:32;;;;;;;4.25;0.85;;;;;;;11.83;88.97;101387.94;5133307;28;20028;-87
2022/09/17 09:01:12;;;;;;;4.78;0.82;;;;;;;12.00;87.36;101393.78;5133344;28;20074;-88
2022/09/17 09:03:58;;;;;;;5.93;0.90;;;;;;;12.21;85.86;101392.69;5133726;28;20032;-88
2022/09/17 09:06:31;;;;;;;6.15;0.82;;;;;;;12.60;84.42;101388.19;5133553;28;20039;-88
2022/09/17 09:09:03;;;;;;;7.80;0.80;;;;;;;13.14;82.02;101392.31;5133484;28;20038;-88
2022/09/17 09:11:50;;;;;;;6.22;0.80;;;;;;;13.64;80.73;101396.16;5134000;28;20027;-87
2022/09/17 09:14:36;;;;;;;5.97;0.80;;;;;;;13.51;83.50;101405.31;5134046;28;20059;-87
2022/09/17 09:17:07;;;;;;;7.45;0.70;;;;;;;13.01;84.50;101400.56;5133109;28;20040;-88
2022/09/17 09:19:42;;;;;;;6.93;0.88;;;;;;;12.91;88.61;101403.75;5132731;28;20019;-88
2022/09/17 09:22:41;;;;;;;6.07;0.77;;;;;;;12.99;86.42;101402.66;5133978;28;20077;-88
2022/09/17 09:25:25;;;;;;;4.88;0.60;;;;;;;13.18;86.26;101403.59;5132956;28;20027;-88
2022/09/17 09:28:33;;;;;;;6.20;1.00;;;;;;;13.28;85.39;101398.50;5134440;27;20030;-87
2022/09/17 09:31:15;;;;;;;9.38;1.23;;;;;;;13.50;82.71;101400.91;5132954;28;20031;-88
2022/09/17 09:33:42;;;;;;;5.75;1.00;;;;;;;13.69;78.58;101393.63;5133112;28;20425;-88
2022/09/17 09:36:14;;;;;;;2.57;1.10;;;;;;;13.89;80.61;101390.69;5132953;28;20034;-87
2022/09/17 09:38:53;;;;;;;7.85;1.00;;;;;;;14.36;78.66;101391.06;5132810;28;20463;-88
2022/09/17 09:41:35;;;;;;;4.68;1.00;;;;;;;14.78;76.42;101397.72;5132302;28;20527;-88
2022/09/17 09:44:01;;;;;;;6.40;1.00;;;;;;;14.76;75.41;101397.97;5132500;28;20053;-88
2022/09/17 09:46:56;;;;;;;7.07;1.00;;;;;;;14.69;72.17;101399.94;5134123;27;20031;-88
2022/09/17 09:49:30;;;;;;;4.37;1.03;;;;;;;14.72;73.69;101399.50;5133528;27;20039;-88
2022/09/17 09:52:31;;;;;;;4.72;1.25;;;;;;;14.85;75.31;101399.31;5133667;27;20035;-88
2022/09/17 09:55:27;;;;;;;6.50;0.70;;;;;;;14.73;71.56;101393.81;5136624;27;20035;-88
2022/09/17 09:58:10;;;;;;;4.88;0.75;;;;;;;14.79;71.88;101405.69;5136809;27;20046;-88
2022/09/17 10:00:44;;;;;;;5.53;0.80;;;;;;;14.52;71.26;101399.72;5136732;27;20023;-91
2022/09/17 10:03:21;;;;;;;4.67;0.80;;;;;;;14.35;71.09;101397.59;5136478;27;20043;-88
2022/09/17 10:05:53;;;;;;;5.80;0.68;;;;;;;14.37;69.74;101408.28;5136267;27;20033;-87
2022/09/17 10:08:27;;;;;;;3.63;0.60;;;;;;;14.41;67.76;101408.66;5136507;27;20042;-87
2022/09/17 10:11:16;;;;;;;5.45;0.60;;;;;;;14.57;68.23;101397.97;5136437;27;20050;-88
2022/09/17 10:13:48;;;;;;;4.32;0.80;;;;;;;14.80;66.94;101396.44;5136480;27;20034;-88
2022/09/17 10:16:16;;;;;;;3.03;0.70;;;;;;;15.05;64.78;101395.47;5136186;27;20031;-89
2022/09/17 10:18:42;;;;;;;2.25;0.60;;;;;;;15.38;64.02;101394.16;5135945;27;20019;-88
2022/09/17 10:21:42;;;;;;;3.35;0.52;;;;;;;15.43;65.68;101395.13;5136982;27;20038;-88
2022/09/17 10:24:44;;;;;;;2.90;0.50;;;;;;;15.27;67.65;101387.59;5136786;27;20027;-88
2022/09/17 10:27:16;;;;;;;1.93;0.70;;;;;;;15.12;66.63;101389.91;5131444;27;20039;-87
2022/09/17 10:29:46;;;;;;;4.95;0.80;;;;;;;15.10;65.97;101390.13;5136941;27;20027;-87
2022/09/17 10:32:16;;;;;;;3.58;0.60;;;;;;;15.39;66.38;101388.44;5136204;27;20460;-87
2022/09/17 10:35:02;;;;;;;5.72;0.57;;;;;;;15.92;65.25;101383.19;5137338;27;20076;-88
2022/09/17 10:37:49;;;;;;;5.55;0.98;;;;;;;15.73;67.73;101390.66;5136080;27;20023;-88
2022/09/17 10:40:23;;;;;;;5.40;1.10;;;;;;;14.86;72.96;101395.50;5136369;27;20030;-88
2022/09/17 10:43:09;;;;;;;6.47;0.80;;;;;;;14.17;75.57;101403.03;5135437;27;20054;-88
2022/09/17 10:45:38;;;;;;;4.00;1.15;;;;;;;13.67;80.31;101395.72;5120986;27;20070;-88
2022/09/17 10:48:16;;;;;;;4.35;0.80;;;;;;;13.85;81.13;101393.06;5135175;27;20110;-88
2022/09/17 10:50:56;;;;;;;4.70;0.70;;;;;;;14.47;80.66;101397.66;5135834;27;20027;-88
2022/09/17 10:53:24;;;;;;;5.20;0.80;;;;;;;14.94;75.55;101399.84;5135721;27;20159;-88
2022/09/17 10:55:49;;;;;;;3.78;0.70;;;;;;;14.88;75.29;101396.13;5135143;27;20030;-88
2022/09/17 10:58:27;;;;;;;2.03;0.60;;;;;;;15.01;74.21;101394.28;5135515;27;20391;-88
2022/09/17 11:00:56;;;;;;;2.38;0.50;;;;;;;15.21;71.77;101397.56;5135445;27;20038;-88
2022/09/17 11:04:06;;;;;;;8.10;1.13;;;;;;;15.36;68.74;101394.38;5134787;27;20039;-88
2022/09/17 11:07:21;;;;;;;3.80;0.60;;;;;;;15.89;66.12;101387.22;5095742;27;20035;-88
2022/09/17 11:10:14;;;;;;;4.53;0.60;;;;;;;15.76;65.26;101395.63;5072875;28;20480;-88
2022/09/17 11:13:00;;;;;;;3.47;0.70;;;;;;;15.58;67.33;101386.47;5056007;28;20032;-87
2022/09/17 11:15:33;;;;;;;1.95;0.63;;;;;;;15.55;67.85;101400.59;5128246;27;20038;-87
2022/09/17 11:18:37;;;;;;;5.53;0.70;;;;;;;15.73;68.00;101377.78;5135264;27;20122;-87
2022/09/17 11:21:47;;;;;;;1.80;0.52;;;;;;;16.73;67.25;101380.53;5055752;28;20035;-87
2022/09/17 11:24:31;;;;;;;4.40;0.60;;;;;;;19.75;56.89;101373.13;5117811;27;20030;-88
2022/09/17 11:27:21;;;;;;;3.50;0.60;;;;;;;22.57;53.35;101369.16;5135360;27;20042;-88
2022/09/17 11:30:27;;;;;;;3.28;0.73;;;;;;;22.93;48.21;101377.28;5134532;27;20043;-88
2022/09/17 11:33:14;;;;;;;3.47;0.80;;;;;;;24.36;44.59;101368.84;5055537;28;20384;-88
2022/09/17 11:35:49;;;;;;;3.60;0.80;;;;;;;24.75;41.88;101370.56;5076114;27;20125;-88
2022/09/17 11:38:26;;;;;;;3.63;0.85;;;;;;;24.54;42.58;101370.00;5134774;27;20066;-88
2022/09/17 11:41:49;;;;;;;4.57;1.13;;;;;;;23.49;43.70;101370.53;5135785;27;20524;-88
2022/09/17 11:44:25;;;;;;;2.35;0.70;;;;;;;20.73;46.95;101363.50;5055000;28;20131;-88
2022/09/17 11:47:06;;;;;;;5.13;1.20;;;;;;;19.61;51.78;101359.00;5106672;28;20036;-88
2022/09/17 11:49:43;;;;;;;2.85;1.00;;;;;;;20.95;50.36;101366.03;5096886;28;20031;-88
2022/09/17 11:53:03;;;;;;;2.15;0.80;;;;;;;23.89;44.73;101371.31;5096327;28;20475;-89
2022/09/17 11:55:41;;;;;;;3.97;1.30;;;;;;;26.23;40.30;101360.88;5096655;28;20032;-88
2022/09/17 11:58:46;;;;;;;4.18;1.00;;;;;;;27.85;36.28;101365.22;5096565;28;20055;-88
2022/09/17 12:01:39;;;;;;;2.72;1.15;;;;;;;28.53;33.67;101355.44;5093909;28;20059;-89
2022/09/17 12:04:34;;;;;;;2.80;1.25;;;;;;;29.42;32.63;101359.13;5114513;28;20028;-88
2022/09/17 12:10:46;;;;;;;3.80;1.70;;;;;;;29.91;33.15;101340.91;5038474;28;20071;-89
2022/09/17 12:13:35;;;;;;;6.55;1.60;;;;;;;32.01;29.74;101352.38;5096567;28;20419;-89
2022/09/17 12:16:42;;;;;;;4.88;1.70;;;;;;;32.85;28.23;101328.53;5096070;28;20081;-89
2022/09/17 12:19:50;;;;;;;4.45;1.90;;;;;;;33.25;26.13;101326.88;5095674;28;20034;-89
2022/09/17 12:22:22;;;;;;;3.15;1.75;;;;;;;33.08;24.63;101328.00;5087469;28;20040;-90
2022/09/17 12:25:05;;;;;;;5.07;2.00;;;;;;;33.52;24.18;101319.59;5095761;28;20027;-87
2022/09/17 12:27:51;;;;;;;3.20;2.00;;;;;;;33.47;25.94;101320.66;5096154;28;20027;-87
2022/09/17 12:30:33;;;;;;;4.15;1.90;;;;;;;32.78;25.14;101309.50;5096064;28;20073;-87
2022/09/17 12:32:58;;;;;;;3.97;2.20;;;;;;;32.05;25.04;101305.59;5096288;28;20087;-87
2022/09/17 12:36:01;;;;;;;5.90;1.80;;;;;;;32.50;28.31;101303.81;5095904;28;20160;-87